createdAt,value
2019-02-06T00:00:10.450Z,11.20
2019-02-06T00:02:36.791Z,9.73
2019-02-06T00:05:14.140Z,10.00
2019-02-06T00:07:33.176Z,9.60
2019-02-06T00:10:00.334Z,10.40
2019-02-06T00:12:26.924Z,9.43
2019-02-06T00:14:53.269Z,9.77
2019-02-06T00:17:19.839Z,10.30
2019-02-06T00:19:46.099Z,9.93
2019-02-06T00:22:12.975Z,10.13
2019-02-06T00:24:39.619Z,10.17
2019-02-06T00:27:06.138Z,10.13
2019-02-06T00:29:32.464Z,10.40
2019-02-06T00:31:59.058Z,10.93
2019-02-06T00:34:25.443Z,10.17
2019-02-06T00:36:51.735Z,11.23
2019-02-06T00:39:18.095Z,10.70
2019-02-06T00:41:44.525Z,11.50
2019-02-06T00:44:10.857Z,11.10
2019-02-06T00:46:37.241Z,10.33
2019-02-06T00:49:03.659Z,10.40
2019-02-06T00:51:30.141Z,11.70
2019-02-06T00:53:56.587Z,11.43
2019-02-06T00:56:24.776Z,10.73
2019-02-06T00:58:51.310Z,11.33
2019-02-06T01:01:18.078Z,12.27
2019-02-06T01:03:44.607Z,10.63
2019-02-06T01:06:11.000Z,10.40
2019-02-06T01:08:37.654Z,10.77
2019-02-06T01:11:04.161Z,10.47
2019-02-06T01:13:30.434Z,8.90
2019-02-06T01:15:56.936Z,9.87
2019-02-06T01:18:23.164Z,9.87
2019-02-06T01:20:49.449Z,10.30
2019-02-06T01:23:16.408Z,8.50
2019-02-06T01:25:43.072Z,9.43
2019-02-06T01:28:09.733Z,9.63
2019-02-06T01:30:38.354Z,9.73
2019-02-06T01:33:04.829Z,10.47
2019-02-06T01:35:31.056Z,9.87
2019-02-06T01:37:57.340Z,10.13
2019-02-06T01:40:23.720Z,10.40
2019-02-06T01:42:50.050Z,9.77
2019-02-06T01:45:18.326Z,10.00
2019-02-06T01:47:45.171Z,9.30
2019-02-06T01:50:13.669Z,10.20
2019-02-06T01:52:39.971Z,9.70
2019-02-06T01:55:08.589Z,9.53
2019-02-06T01:57:34.995Z,9.33
2019-02-06T02:00:01.454Z,9.67
2019-02-06T02:02:28.079Z,9.60
2019-02-06T02:04:54.496Z,10.53
2019-02-06T02:07:21.155Z,10.07
2019-02-06T02:09:47.861Z,9.90
2019-02-06T02:12:14.153Z,10.03
2019-02-06T02:14:40.634Z,10.00
2019-02-06T02:17:06.868Z,9.83
2019-02-06T02:19:33.305Z,9.97
2019-02-06T02:21:59.731Z,9.80
2019-02-06T02:24:26.060Z,10.00
2019-02-06T02:26:52.390Z,10.37
2019-02-06T02:29:19.028Z,10.60
2019-02-06T02:31:46.075Z,10.70
2019-02-06T02:34:12.712Z,9.87
2019-02-06T02:36:39.147Z,9.40
2019-02-06T02:39:06.091Z,9.57
2019-02-06T02:41:32.420Z,10.73
2019-02-06T02:43:58.749Z,8.97
2019-02-06T02:46:25.081Z,10.57
2019-02-06T02:48:51.586Z,9.67
2019-02-06T02:51:17.948Z,11.03
2019-02-06T02:53:44.282Z,10.70
2019-02-06T02:56:12.519Z,9.53
2019-02-06T02:58:38.715Z,10.53
2019-02-06T03:01:24.940Z,10.63
2019-02-06T03:03:53.564Z,9.70
2019-02-06T03:06:28.299Z,10.80
2019-02-06T03:08:48.069Z,9.67
2019-02-06T03:11:14.393Z,9.37
2019-02-06T03:13:40.823Z,11.13
2019-02-06T03:16:07.258Z,10.27
2019-02-06T03:18:33.997Z,9.80
2019-02-06T03:21:00.656Z,10.20
2019-02-06T03:23:27.074Z,10.40
2019-02-06T03:25:53.505Z,10.53
2019-02-06T03:28:21.279Z,9.67
2019-02-06T03:30:47.595Z,10.27
2019-02-06T03:33:13.929Z,9.90
2019-02-06T03:35:41.585Z,11.13
2019-02-06T03:38:08.060Z,9.87
2019-02-06T03:40:34.450Z,10.03
2019-02-06T03:43:01.002Z,10.13
2019-02-06T03:45:27.317Z,10.10
2019-02-06T03:47:53.637Z,10.07
2019-02-06T03:50:20.083Z,9.60
2019-02-06T03:52:46.368Z,9.93
2019-02-06T03:55:12.946Z,9.80
2019-02-06T03:57:39.277Z,9.50
2019-02-06T04:00:14.718Z,10.03
2019-02-06T04:02:41.363Z,10.50
2019-02-06T04:05:09.207Z,9.40
2019-02-06T04:07:35.663Z,9.40
2019-02-06T04:10:08.864Z,9.60
2019-02-06T04:12:35.590Z,9.87
2019-02-06T04:15:02.119Z,10.07
2019-02-06T04:17:28.987Z,9.87
2019-02-06T04:19:55.291Z,9.73
2019-02-06T04:22:21.815Z,10.37
2019-02-06T04:24:51.543Z,9.37
2019-02-06T04:27:18.062Z,8.80
2019-02-06T04:29:44.339Z,9.27
2019-02-06T04:32:10.638Z,8.90
2019-02-06T04:34:36.921Z,8.37
2019-02-06T04:37:06.774Z,9.87
2019-02-06T04:39:31.669Z,9.37
2019-02-06T04:41:57.999Z,9.23
2019-02-06T04:44:24.431Z,9.17
2019-02-06T04:46:50.865Z,9.27
2019-02-06T04:49:17.297Z,8.77
2019-02-06T04:51:43.625Z,10.53
2019-02-06T04:54:09.971Z,8.60
2019-02-06T04:56:36.921Z,8.80
2019-02-06T04:59:03.333Z,8.27
2019-02-06T05:01:29.662Z,8.07
2019-02-06T05:03:55.915Z,8.70
2019-02-06T05:06:22.220Z,8.90
2019-02-06T05:08:48.776Z,8.93
2019-02-06T05:11:15.103Z,8.93
2019-02-06T05:13:41.419Z,8.50
2019-02-06T05:16:07.689Z,8.77
2019-02-06T05:18:34.082Z,8.43
2019-02-06T05:21:00.424Z,8.40
2019-02-06T05:23:26.740Z,8.63
2019-02-06T05:25:54.738Z,8.90
2019-02-06T05:28:21.000Z,8.27
2019-02-06T05:30:47.381Z,8.73
2019-02-06T05:33:14.664Z,8.60
2019-02-06T05:35:40.989Z,8.60
2019-02-06T05:38:07.489Z,8.10
2019-02-06T05:40:35.071Z,8.73
2019-02-06T05:43:01.374Z,8.30
2019-02-06T05:45:27.718Z,8.27
2019-02-06T05:47:54.136Z,8.03
2019-02-06T05:50:20.774Z,8.93
2019-02-06T05:52:47.204Z,7.70
2019-02-06T05:55:15.704Z,8.47
2019-02-06T05:57:42.527Z,8.27
2019-02-06T06:00:15.147Z,8.20
2019-02-06T06:02:41.473Z,8.50
2019-02-06T06:05:08.069Z,8.53
2019-02-06T06:07:44.588Z,9.60
2019-02-06T06:10:05.540Z,8.57
2019-02-06T06:12:32.091Z,8.10
2019-02-06T06:14:58.818Z,8.20
2019-02-06T06:17:25.146Z,8.63
2019-02-06T06:19:51.480Z,8.53
2019-02-06T06:22:17.822Z,7.23
2019-02-06T06:24:44.498Z,8.53
2019-02-06T06:27:10.874Z,8.73
2019-02-06T06:29:37.185Z,8.50
2019-02-06T06:32:03.586Z,8.07
2019-02-06T06:34:30.081Z,8.23
2019-02-06T06:36:57.071Z,7.53
2019-02-06T06:39:25.361Z,8.53
2019-02-06T06:41:51.621Z,8.17
2019-02-06T06:44:17.914Z,9.07
2019-02-06T06:46:44.383Z,8.57
2019-02-06T06:49:10.736Z,7.93
2019-02-06T06:51:38.087Z,8.97
2019-02-06T06:54:04.756Z,8.87
2019-02-06T06:56:31.550Z,9.50
2019-02-06T06:58:58.096Z,8.80
2019-02-06T07:01:24.381Z,8.97
2019-02-06T07:03:50.743Z,7.83
2019-02-06T07:06:17.279Z,9.03
2019-02-06T07:08:43.833Z,9.33
2019-02-06T07:11:10.246Z,8.83
2019-02-06T07:13:37.186Z,8.43
2019-02-06T07:16:03.957Z,8.10
2019-02-06T07:18:30.286Z,7.70
2019-02-06T07:20:56.802Z,7.93
2019-02-06T07:23:23.131Z,8.13
2019-02-06T07:25:49.424Z,8.30
2019-02-06T07:28:15.755Z,8.93
2019-02-06T07:30:42.055Z,8.00
2019-02-06T07:33:08.451Z,8.67
2019-02-06T07:35:34.988Z,7.70
2019-02-06T07:38:01.422Z,8.97
2019-02-06T07:40:27.956Z,8.87
2019-02-06T07:42:54.435Z,7.93
2019-02-06T07:45:21.021Z,9.00
2019-02-06T07:47:47.861Z,8.70
2019-02-06T07:50:17.472Z,8.40
2019-02-06T07:52:44.121Z,8.57
2019-02-06T07:55:11.578Z,8.33
2019-02-06T07:57:37.982Z,7.97
2019-02-06T08:00:06.330Z,8.43
2019-02-06T08:02:32.808Z,8.37
2019-02-06T08:04:59.448Z,7.67
2019-02-06T08:07:25.821Z,8.00
2019-02-06T08:09:52.718Z,7.90
2019-02-06T08:12:18.966Z,8.13
2019-02-06T08:14:46.009Z,8.83
2019-02-06T08:17:12.352Z,8.87
2019-02-06T08:19:39.984Z,8.43
2019-02-06T08:22:06.319Z,8.83
2019-02-06T08:24:32.900Z,8.63
2019-02-06T08:26:59.281Z,7.60
2019-02-06T08:29:25.576Z,8.47
2019-02-06T08:31:52.453Z,9.83
2019-02-06T08:34:19.091Z,8.20
2019-02-06T08:36:45.420Z,8.53
2019-02-06T08:39:11.913Z,8.10
2019-02-06T08:41:38.234Z,8.57
2019-02-06T08:44:04.617Z,8.10
2019-02-06T08:46:30.893Z,9.90
2019-02-06T08:48:57.281Z,9.17
2019-02-06T08:51:23.506Z,9.60
2019-02-06T08:53:51.524Z,9.87
2019-02-06T08:56:17.905Z,8.70
2019-02-06T08:58:44.678Z,8.23
2019-02-06T09:01:11.078Z,9.00
2019-02-06T09:03:37.407Z,9.23
2019-02-06T09:06:03.727Z,8.13
2019-02-06T09:08:31.299Z,9.20
2019-02-06T09:10:57.736Z,9.17
2019-02-06T09:13:24.169Z,8.40
2019-02-06T09:15:50.703Z,8.73
2019-02-06T09:18:17.029Z,8.90
2019-02-06T09:20:43.366Z,8.03
2019-02-06T09:23:09.611Z,8.50
2019-02-06T09:25:36.560Z,8.20
2019-02-06T09:28:04.323Z,8.67
2019-02-06T09:30:33.184Z,8.00
2019-02-06T09:32:59.820Z,8.93
2019-02-06T09:35:26.313Z,8.60
2019-02-06T09:37:52.790Z,7.90
2019-02-06T09:40:25.492Z,8.00
2019-02-06T09:42:51.910Z,8.93
2019-02-06T09:45:18.435Z,8.47
2019-02-06T09:47:45.394Z,8.10
2019-02-06T09:50:21.364Z,8.77
2019-02-06T09:52:47.778Z,9.67
2019-02-06T09:55:14.408Z,9.57
2019-02-06T09:57:40.737Z,8.83
2019-02-06T10:00:10.961Z,7.97
2019-02-06T10:02:37.291Z,8.67
2019-02-06T10:05:07.509Z,8.50
2019-02-06T10:07:34.018Z,9.27
2019-02-06T10:10:00.374Z,9.13
2019-02-06T10:12:26.707Z,9.37
2019-02-06T10:14:53.035Z,8.80
2019-02-06T10:17:19.317Z,9.03
2019-02-06T10:19:45.695Z,8.13
2019-02-06T10:22:11.923Z,9.13
2019-02-06T10:24:38.254Z,8.23
2019-02-06T10:27:04.847Z,8.97
2019-02-06T10:29:31.469Z,8.73
2019-02-06T10:31:58.482Z,8.33
2019-02-06T10:34:24.818Z,8.60
2019-02-06T10:36:51.137Z,8.33
2019-02-06T10:39:17.570Z,8.07
2019-02-06T10:41:43.849Z,8.30
2019-02-06T10:44:10.145Z,7.80
2019-02-06T10:46:36.564Z,8.30
2019-02-06T10:49:03.816Z,7.50
2019-02-06T10:51:30.137Z,8.10
2019-02-06T10:53:56.581Z,8.63
2019-02-06T10:56:22.858Z,8.07
2019-02-06T10:58:49.447Z,8.23
2019-02-06T11:01:15.827Z,8.50
2019-02-06T11:03:42.710Z,8.27
2019-02-06T11:06:09.245Z,8.00
2019-02-06T11:08:36.089Z,8.47
2019-02-06T11:11:02.938Z,8.70
2019-02-06T11:13:29.492Z,8.33
2019-02-06T11:15:56.211Z,9.60
2019-02-06T11:18:22.641Z,8.37
2019-02-06T11:20:48.971Z,8.30
2019-02-06T11:23:15.374Z,7.97
2019-02-06T11:25:41.836Z,8.50
2019-02-06T11:28:08.268Z,7.70
2019-02-06T11:30:36.497Z,9.07
2019-02-06T11:33:03.981Z,7.97
2019-02-06T11:35:30.278Z,7.80
2019-02-06T11:37:56.658Z,7.97
2019-02-06T11:40:24.120Z,8.83
2019-02-06T11:42:51.471Z,8.50
2019-02-06T11:45:24.354Z,8.57
2019-02-06T11:47:50.663Z,7.87
2019-02-06T11:50:20.908Z,7.67
2019-02-06T11:52:48.136Z,8.07
2019-02-06T11:55:16.741Z,7.93
2019-02-06T11:57:43.053Z,8.20
2019-02-06T12:00:17.659Z,9.17
2019-02-06T12:02:44.169Z,8.27
2019-02-06T12:05:10.836Z,8.47
2019-02-06T12:07:37.653Z,8.03
2019-02-06T12:10:10.734Z,7.80
2019-02-06T12:12:37.064Z,7.60
2019-02-06T12:15:07.137Z,7.83
2019-02-06T12:17:33.516Z,7.37
2019-02-06T12:20:00.194Z,7.57
2019-02-06T12:22:26.490Z,8.50
2019-02-06T12:24:52.762Z,8.73
2019-02-06T12:27:19.451Z,7.80
2019-02-06T12:29:45.739Z,8.90
2019-02-06T12:32:12.347Z,8.40
2019-02-06T12:34:39.322Z,9.00
2019-02-06T12:37:06.011Z,8.37
2019-02-06T12:39:32.423Z,7.90
2019-02-06T12:41:58.831Z,8.60
2019-02-06T12:44:25.625Z,8.03
2019-02-06T12:46:52.141Z,8.80
2019-02-06T12:49:18.620Z,8.70
2019-02-06T12:51:44.951Z,8.13
2019-02-06T12:54:11.552Z,8.60
2019-02-06T12:56:37.853Z,8.57
2019-02-06T12:59:04.306Z,8.23
2019-02-06T13:01:30.639Z,7.83
2019-02-06T13:03:57.370Z,9.63
2019-02-06T13:06:23.803Z,9.03
2019-02-06T13:08:50.236Z,9.03
2019-02-06T13:11:16.489Z,8.97
2019-02-06T13:13:45.118Z,8.57
2019-02-06T13:16:10.883Z,8.50
2019-02-06T13:18:37.300Z,8.40
2019-02-06T13:21:03.819Z,8.47
2019-02-06T13:23:30.166Z,9.30
2019-02-06T13:25:56.919Z,8.40
2019-02-06T13:28:23.336Z,8.27
2019-02-06T13:30:49.668Z,7.87
2019-02-06T13:33:15.901Z,8.03
2019-02-06T13:35:42.219Z,9.50
2019-02-06T13:38:08.653Z,8.47
2019-02-06T13:40:45.267Z,9.43
2019-02-06T13:43:04.593Z,8.40
2019-02-06T13:45:39.549Z,8.80
2019-02-06T13:48:05.856Z,8.53
2019-02-06T13:50:32.556Z,7.63
2019-02-06T13:53:00.347Z,8.30
2019-02-06T13:55:33.955Z,8.43
2019-02-06T13:58:00.231Z,8.37
2019-02-06T14:00:36.655Z,7.27
2019-02-06T14:03:04.927Z,7.50
2019-02-06T14:05:31.991Z,8.40
2019-02-06T14:08:00.603Z,7.97
2019-02-06T14:10:28.852Z,7.67
2019-02-06T14:12:55.473Z,8.17
2019-02-06T14:15:25.781Z,8.00
2019-02-06T14:17:52.128Z,8.30
2019-02-06T14:20:20.609Z,8.00
2019-02-06T14:22:50.829Z,8.07
2019-02-06T14:25:29.997Z,8.17
2019-02-06T14:28:00.427Z,8.53
2019-02-06T14:30:33.131Z,8.20
2019-02-06T14:33:09.431Z,8.20
2019-02-06T14:35:43.441Z,7.70
2019-02-06T14:38:20.021Z,8.40
2019-02-06T14:40:53.140Z,8.53
2019-02-06T14:43:26.273Z,7.80
2019-02-06T14:45:56.642Z,8.27
2019-02-06T14:48:52.971Z,8.33
2019-02-06T14:51:41.490Z,8.40
2019-02-06T14:54:20.733Z,8.13
2019-02-06T14:56:50.853Z,7.87
2019-02-06T14:59:34.412Z,7.93
2019-02-06T15:02:15.722Z,7.60
2019-02-06T15:04:51.591Z,8.10
2019-02-06T15:07:40.070Z,7.70
2019-02-06T15:10:19.332Z,7.90
2019-02-06T15:12:49.524Z,7.97
2019-02-06T15:15:34.755Z,7.70
2019-02-06T15:18:10.343Z,8.13
2019-02-06T15:20:56.030Z,8.70
2019-02-06T15:23:55.060Z,8.23
2019-02-06T15:26:28.540Z,8.57
2019-02-06T15:29:04.987Z,8.77
2019-02-06T15:31:40.947Z,8.30
2019-02-06T15:34:16.924Z,8.70
2019-02-06T15:37:10.164Z,8.60
2019-02-06T15:40:02.003Z,8.27
2019-02-06T15:42:32.418Z,9.37
2019-02-06T15:45:17.900Z,10.10
2019-02-06T15:48:03.563Z,7.73
2019-02-06T15:50:43.326Z,9.23
2019-02-06T15:53:22.472Z,8.00
2019-02-06T15:56:13.559Z,7.67
2019-02-06T15:58:52.495Z,7.80
2019-02-06T16:01:25.376Z,7.73
2019-02-06T16:04:38.607Z,7.97
2019-02-06T16:07:17.680Z,8.23
2019-02-06T16:10:07.140Z,7.83
2019-02-06T16:12:53.735Z,7.97
2019-02-06T16:15:26.753Z,7.50
2019-02-06T16:17:59.621Z,6.80
2019-02-06T16:20:49.334Z,6.63
2019-02-06T16:23:28.291Z,7.10
2019-02-06T16:26:13.358Z,7.83
2019-02-06T16:28:44.544Z,6.07
2019-02-06T16:31:26.703Z,7.07
2019-02-06T16:33:59.623Z,6.13
2019-02-06T16:36:32.881Z,6.30
2019-02-06T16:39:05.868Z,7.10
2019-02-06T16:41:54.817Z,6.27
2019-02-06T16:44:42.626Z,6.83
2019-02-06T16:47:19.095Z,7.13
2019-02-06T16:50:01.296Z,7.17
2019-02-06T16:52:41.181Z,6.77
2019-02-06T16:55:23.279Z,7.80
2019-02-06T16:57:59.542Z,7.93
2019-02-06T17:00:33.099Z,7.13
2019-02-06T17:03:15.537Z,7.03
2019-02-06T17:05:48.404Z,6.57
2019-02-06T17:08:45.830Z,6.70
2019-02-06T17:11:30.979Z,6.03
2019-02-06T17:14:18.901Z,5.77
2019-02-06T17:16:55.060Z,5.27
2019-02-06T17:19:34.818Z,5.50
2019-02-06T17:22:05.026Z,5.57
2019-02-06T17:24:55.247Z,5.27
2019-02-06T17:27:45.111Z,5.57
2019-02-06T17:30:32.677Z,5.60
2019-02-06T17:33:29.818Z,5.53
2019-02-06T17:36:06.179Z,5.70
2019-02-06T17:39:04.320Z,6.10
2019-02-06T17:41:37.612Z,4.97
2019-02-06T17:44:30.238Z,5.53
2019-02-06T17:47:06.349Z,5.37
2019-02-06T17:49:57.665Z,5.47
2019-02-06T17:52:27.958Z,5.40
2019-02-06T17:55:16.305Z,5.67
2019-02-06T17:57:43.010Z,5.23
2019-02-06T18:00:31.284Z,6.17
2019-02-06T18:03:00.599Z,5.67
2019-02-06T18:05:26.895Z,5.47
2019-02-06T18:07:53.303Z,5.07
2019-02-06T18:10:19.891Z,5.43
2019-02-06T18:12:46.303Z,5.07
2019-02-06T18:15:13.265Z,5.30
2019-02-06T18:17:39.816Z,5.30
2019-02-06T18:20:13.410Z,4.70
2019-02-06T18:22:39.699Z,4.57
2019-02-06T18:25:09.115Z,4.50
2019-02-06T18:27:35.826Z,3.90
2019-02-06T18:30:14.796Z,5.13
2019-02-06T18:32:41.124Z,4.43
2019-02-06T18:35:08.266Z,4.40
2019-02-06T18:37:42.868Z,4.10
2019-02-06T18:40:06.670Z,4.57
2019-02-06T18:42:36.916Z,3.97
2019-02-06T18:45:01.736Z,4.10
2019-02-06T18:47:28.221Z,4.30
2019-02-06T18:49:54.494Z,4.37
2019-02-06T18:52:20.922Z,4.47
2019-02-06T18:54:47.419Z,3.90
2019-02-06T18:57:13.746Z,4.23
2019-02-06T18:59:40.078Z,4.43
2019-02-06T19:02:06.524Z,4.43
2019-02-06T19:04:33.055Z,4.40
2019-02-06T19:06:59.618Z,4.23
2019-02-06T19:09:28.736Z,4.10
2019-02-06T19:11:54.330Z,4.30
2019-02-06T19:14:20.743Z,3.97
2019-02-06T19:16:47.485Z,4.23
2019-02-06T19:19:24.843Z,4.33
2019-02-06T19:21:41.889Z,4.40
2019-02-06T19:24:08.294Z,5.30
2019-02-06T19:26:34.724Z,4.97
2019-02-06T19:29:01.381Z,4.80
2019-02-06T19:31:27.797Z,5.33
2019-02-06T19:33:54.450Z,5.23
2019-02-06T19:36:21.072Z,4.70
2019-02-06T19:38:47.402Z,5.70
2019-02-06T19:41:13.732Z,5.00
2019-02-06T19:43:40.071Z,4.70
2019-02-06T19:46:06.392Z,4.63
2019-02-06T19:48:32.676Z,5.40
2019-02-06T19:50:59.056Z,4.70
2019-02-06T19:53:25.281Z,4.20
2019-02-06T19:55:51.611Z,4.80
2019-02-06T19:58:18.479Z,4.77
2019-02-06T20:00:45.234Z,4.27
2019-02-06T20:03:11.842Z,4.57
2019-02-06T20:05:38.487Z,4.90
2019-02-06T20:08:06.264Z,5.23
2019-02-06T20:10:37.912Z,5.07
2019-02-06T20:13:11.411Z,6.10
2019-02-06T20:15:32.727Z,5.43
2019-02-06T20:17:59.363Z,5.83
2019-02-06T20:20:26.769Z,5.87
2019-02-06T20:22:53.224Z,5.87
2019-02-06T20:25:20.275Z,6.37
2019-02-06T20:27:47.794Z,6.37
2019-02-06T20:30:20.919Z,6.37
2019-02-06T20:32:47.352Z,6.10
2019-02-06T20:35:33.522Z,6.63
2019-02-06T20:38:00.095Z,6.43
2019-02-06T20:40:29.903Z,5.60
2019-02-06T20:42:56.739Z,6.50
2019-02-06T20:45:23.239Z,6.33
2019-02-06T20:47:49.601Z,6.27
2019-02-06T20:50:25.785Z,6.07
2019-02-06T20:52:52.297Z,6.50
2019-02-06T20:55:19.959Z,5.73
2019-02-06T20:57:47.113Z,6.37
2019-02-06T21:00:19.787Z,6.33
2019-02-06T21:02:46.082Z,6.17
2019-02-06T21:05:13.591Z,6.63
2019-02-06T21:07:40.000Z,6.50
2019-02-06T21:10:13.406Z,6.07
2019-02-06T21:12:39.939Z,6.70
2019-02-06T21:15:08.230Z,6.30
2019-02-06T21:17:34.527Z,6.87
2019-02-06T21:20:00.983Z,7.33
2019-02-06T21:22:27.409Z,7.40
2019-02-06T21:24:53.738Z,6.90
2019-02-06T21:27:20.090Z,7.37
2019-02-06T21:29:46.402Z,8.27
2019-02-06T21:32:12.934Z,7.53
2019-02-06T21:34:39.132Z,7.90
2019-02-06T21:37:05.881Z,6.77
2019-02-06T21:39:32.553Z,7.97
2019-02-06T21:41:58.846Z,8.30
2019-02-06T21:44:25.162Z,7.63
2019-02-06T21:46:51.440Z,8.33
2019-02-06T21:49:17.860Z,8.00
2019-02-06T21:51:45.389Z,8.47
2019-02-06T21:54:11.876Z,8.63
2019-02-06T21:56:38.288Z,8.70
2019-02-06T21:59:04.720Z,7.83
2019-02-06T22:01:31.054Z,8.93
2019-02-06T22:03:58.014Z,8.43
2019-02-06T22:06:24.533Z,8.53
2019-02-06T22:08:50.839Z,8.80
2019-02-06T22:11:17.847Z,9.13
2019-02-06T22:13:54.710Z,8.70
2019-02-06T22:16:12.310Z,9.13
2019-02-06T22:18:38.550Z,8.70
2019-02-06T22:21:04.867Z,9.20
2019-02-06T22:23:31.197Z,9.00
2019-02-06T22:25:57.527Z,9.17
2019-02-06T22:28:23.806Z,9.63
2019-02-06T22:30:50.103Z,9.73
2019-02-06T22:33:17.034Z,9.47
2019-02-06T22:35:44.518Z,9.93
2019-02-06T22:38:10.833Z,9.63
2019-02-06T22:40:37.246Z,8.83
2019-02-06T22:43:05.581Z,9.57
2019-02-06T22:45:32.071Z,10.00
2019-02-06T22:47:58.695Z,9.93
2019-02-06T22:50:27.172Z,9.97
2019-02-06T22:52:53.724Z,9.27
2019-02-06T22:55:20.350Z,10.57
2019-02-06T22:57:46.886Z,10.57
2019-02-06T23:00:24.489Z,10.80
2019-02-06T23:02:51.216Z,11.10
2019-02-06T23:05:17.653Z,10.70
2019-02-06T23:07:44.551Z,10.97
2019-02-06T23:10:12.055Z,11.33
2019-02-06T23:12:38.380Z,10.87
2019-02-06T23:15:07.485Z,10.70
2019-02-06T23:17:33.791Z,12.13
2019-02-06T23:20:00.244Z,12.23
2019-02-06T23:22:26.877Z,12.80
2019-02-06T23:24:53.309Z,11.40
2019-02-06T23:27:19.623Z,12.27
2019-02-06T23:29:46.686Z,13.13
2019-02-06T23:32:12.905Z,11.30
2019-02-06T23:34:39.243Z,12.17
2019-02-06T23:37:05.574Z,10.27
2019-02-06T23:39:31.923Z,11.17
2019-02-06T23:41:58.195Z,11.80
2019-02-06T23:44:44.691Z,11.20
2019-02-06T23:47:10.956Z,10.37
2019-02-06T23:49:37.307Z,10.10
2019-02-06T23:52:04.500Z,10.70
2019-02-06T23:54:31.106Z,10.70
2019-02-06T23:56:57.412Z,11.50
2019-02-06T23:59:23.691Z,10.47
